Hyampom, California
Current Conditions -  °F | °C
As of 8:55 AM on Wednesday 22 Oct 2014 (Local Time) from KO54 Reporting Station
Overcast Overcast  
Wind Chill: 45°   Ceiling: 4200
Heat Index: 45°   Visibility: 10mi
Dew Point: 41°   Wind: 0mph
Humidity: 87%   Direction: NA
Pressure: 30.09"   Gusts: NA
Location:  40.62°N, 123.45°W
Report Text: KO54 221555Z AUTO 00000KT 10SM BKN042 OVC055 07/05 A3009 RMK AO1
Loading
Personal Weather Stations






























Interactive Weather Map
Tropical Storm Tracking
New forecast layout! Learn more

10-Day Weather Forecast

Advertisements
Track Severe Weather on mobile